sensor_id;sensor_type;location;lat;lon;timestamp;temperature;humidity
5930;DHT22;2990;48.746;9.236;2023-11-22T00:00:10;6.50;99.90
5930;DHT22;2990;48.746;9.236;2023-11-22T00:02:37;6.50;99.90
5930;DHT22;2990;48.746;9.236;2023-11-22T00:05:04;6.50;99.90
5930;DHT22;2990;48.746;9.236;2023-11-22T00:07:31;6.50;99.90
5930;DHT22;2990;48.746;9.236;2023-11-22T00:09:56;6.40;99.90
5930;DHT22;2990;48.746;9.236;2023-11-22T00:12:22;6.40;99.90
5930;DHT22;2990;48.746;9.236;2023-11-22T00:14:48;6.40;99.90
5930;DHT22;2990;48.746;9.236;2023-11-22T00:17:14;6.40;99.90
5930;DHT22;2990;48.746;9.236;2023-11-22T00:19:39;6.40;99.90
5930;DHT22;2990;48.746;9.236;2023-11-22T00:22:05;6.20;99.90
5930;DHT22;2990;48.746;9.236;2023-11-22T00:24:41;6.00;99.90
5930;DHT22;2990;48.746;9.236;2023-11-22T00:27:07;5.80;99.90
5930;DHT22;2990;48.746;9.236;2023-11-22T00:29:33;5.70;99.90
5930;DHT22;2990;48.746;9.236;2023-11-22T00:31:58;5.60;99.90
5930;DHT22;2990;48.746;9.236;2023-11-22T00:34:25;5.50;99.90
5930;DHT22;2990;48.746;9.236;2023-11-22T00:36:50;5.50;99.90
5930;DHT22;2990;48.746;9.236;2023-11-22T00:39:16;5.40;99.90
5930;DHT22;2990;48.746;9.236;2023-11-22T00:41:42;5.20;99.90
5930;DHT22;2990;48.746;9.236;2023-11-22T00:44:09;5.10;99.90
5930;DHT22;2990;48.746;9.236;2023-11-22T00:46:35;5.00;99.90
5930;DHT22;2990;48.746;9.236;2023-11-22T00:49:02;4.90;99.90
5930;DHT22;2990;48.746;9.236;2023-11-22T00:51:32;4.90;99.90
5930;DHT22;2990;48.746;9.236;2023-11-22T00:53:58;4.80;99.90
5930;DHT22;2990;48.746;9.236;2023-11-22T00:56:25;4.70;99.90
5930;DHT22;2990;48.746;9.236;2023-11-22T00:58:50;4.70;99.90
5930;DHT22;2990;48.746;9.236;2023-11-22T01:01:16;4.60;99.90
5930;DHT22;2990;48.746;9.236;2023-11-22T01:03:43;4.70;99.90
5930;DHT22;2990;48.746;9.236;2023-11-22T01:06:09;4.60;99.90
5930;DHT22;2990;48.746;9.236;2023-11-22T01:08:35;4.60;99.90
5930;DHT22;2990;48.746;9.236;2023-11-22T01:11:01;4.50;99.90
5930;DHT22;2990;48.746;9.236;2023-11-22T01:13:29;4.50;99.90
5930;DHT22;2990;48.746;9.236;2023-11-22T01:15:55;4.40;99.90
5930;DHT22;2990;48.746;9.236;2023-11-22T01:18:20;4.40;99.90
5930;DHT22;2990;48.746;9.236;2023-11-22T01:20:46;4.30;99.90
5930;DHT22;2990;48.746;9.236;2023-11-22T01:23:11;4.20;99.90
5930;DHT22;2990;48.746;9.236;2023-11-22T01:25:37;4.20;99.90
5930;DHT22;2990;48.746;9.236;2023-11-22T01:28:03;4.20;99.90
5930;DHT22;2990;48.746;9.236;2023-11-22T01:30:29;4.10;99.90
5930;DHT22;2990;48.746;9.236;2023-11-22T01:32:54;4.10;99.90
5930;DHT22;2990;48.746;9.236;2023-11-22T01:35:20;4.10;99.90
5930;DHT22;2990;48.746;9.236;2023-11-22T01:37:46;4.10;99.90
5930;DHT22;2990;48.746;9.236;2023-11-22T01:40:12;4.10;99.90
5930;DHT22;2990;48.746;9.236;2023-11-22T01:42:38;4.10;99.90
5930;DHT22;2990;48.746;9.236;2023-11-22T01:45:06;4.10;99.90
5930;DHT22;2990;48.746;9.236;2023-11-22T01:47:32;4.10;99.90
5930;DHT22;2990;48.746;9.236;2023-11-22T01:49:58;4.00;99.90
5930;DHT22;2990;48.746;9.236;2023-11-22T01:52:23;4.00;99.90
5930;DHT22;2990;48.746;9.236;2023-11-22T01:54:49;4.00;99.90
5930;DHT22;2990;48.746;9.236;2023-11-22T01:57:15;4.00;99.90
5930;DHT22;2990;48.746;9.236;2023-11-22T01:59:42;3.90;99.90
5930;DHT22;2990;48.746;9.236;2023-11-22T02:02:09;3.90;99.90
5930;DHT22;2990;48.746;9.236;2023-11-22T02:04:34;3.90;99.90
5930;DHT22;2990;48.746;9.236;2023-11-22T02:07:00;3.80;99.90
5930;DHT22;2990;48.746;9.236;2023-11-22T02:09:25;3.70;99.90
5930;DHT22;2990;48.746;9.236;2023-11-22T02:11:51;3.70;99.90
5930;DHT22;2990;48.746;9.236;2023-11-22T02:14:17;3.60;99.90
5930;DHT22;2990;48.746;9.236;2023-11-22T02:16:43;3.60;99.90
5930;DHT22;2990;48.746;9.236;2023-11-22T02:19:16;3.50;99.90
5930;DHT22;2990;48.746;9.236;2023-11-22T02:21:43;3.50;99.90
5930;DHT22;2990;48.746;9.236;2023-11-22T02:24:09;3.40;99.90
5930;DHT22;2990;48.746;9.236;2023-11-22T02:26:35;3.40;99.90
5930;DHT22;2990;48.746;9.236;2023-11-22T02:29:02;3.40;99.90
5930;DHT22;2990;48.746;9.236;2023-11-22T02:31:29;3.30;99.90
5930;DHT22;2990;48.746;9.236;2023-11-22T02:33:55;3.30;99.90
5930;DHT22;2990;48.746;9.236;2023-11-22T02:36:21;3.30;99.90
5930;DHT22;2990;48.746;9.236;2023-11-22T02:38:47;3.20;99.90
5930;DHT22;2990;48.746;9.236;2023-11-22T02:41:13;3.00;99.90
5930;DHT22;2990;48.746;9.236;2023-11-22T02:47:10;3.00;99.90
5930;DHT22;2990;48.746;9.236;2023-11-22T02:49:35;2.90;99.90
5930;DHT22;2990;48.746;9.236;2023-11-22T02:52:01;2.90;99.90
5930;DHT22;2990;48.746;9.236;2023-11-22T02:54:26;2.90;99.90
5930;DHT22;2990;48.746;9.236;2023-11-22T02:56:52;3.00;99.90
5930;DHT22;2990;48.746;9.236;2023-11-22T02:59:17;3.00;99.90
5930;DHT22;2990;48.746;9.236;2023-11-22T03:01:44;3.00;99.90
5930;DHT22;2990;48.746;9.236;2023-11-22T03:04:11;2.90;99.90
5930;DHT22;2990;48.746;9.236;2023-11-22T03:06:36;2.90;99.90
5930;DHT22;2990;48.746;9.236;2023-11-22T03:09:02;2.90;99.90
5930;DHT22;2990;48.746;9.236;2023-11-22T03:11:28;2.80;99.90
5930;DHT22;2990;48.746;9.236;2023-11-22T03:13:53;2.70;99.90
5930;DHT22;2990;48.746;9.236;2023-11-22T03:16:19;2.70;99.90
5930;DHT22;2990;48.746;9.236;2023-11-22T03:18:44;2.60;99.90
5930;DHT22;2990;48.746;9.236;2023-11-22T03:21:10;2.60;99.90
5930;DHT22;2990;48.746;9.236;2023-11-22T03:23:36;2.50;99.90
5930;DHT22;2990;48.746;9.236;2023-11-22T03:26:01;2.50;99.90
5930;DHT22;2990;48.746;9.236;2023-11-22T03:28:28;2.50;99.90
5930;DHT22;2990;48.746;9.236;2023-11-22T03:30:56;2.50;99.90
5930;DHT22;2990;48.746;9.236;2023-11-22T03:33:21;2.40;99.90
5930;DHT22;2990;48.746;9.236;2023-11-22T03:35:47;2.40;99.90
5930;DHT22;2990;48.746;9.236;2023-11-22T03:38:13;2.30;99.90
5930;DHT22;2990;48.746;9.236;2023-11-22T03:40:38;2.30;99.90
5930;DHT22;2990;48.746;9.236;2023-11-22T03:43:04;2.30;99.90
5930;DHT22;2990;48.746;9.236;2023-11-22T03:45:29;2.30;99.90
5930;DHT22;2990;48.746;9.236;2023-11-22T03:47:55;2.20;99.90
5930;DHT22;2990;48.746;9.236;2023-11-22T03:50:20;2.30;99.90
5930;DHT22;2990;48.746;9.236;2023-11-22T03:52:46;2.20;99.90
5930;DHT22;2990;48.746;9.236;2023-11-22T03:55:12;2.20;99.90
5930;DHT22;2990;48.746;9.236;2023-11-22T03:57:38;2.20;99.90
5930;DHT22;2990;48.746;9.236;2023-11-22T04:00:04;2.20;99.90
5930;DHT22;2990;48.746;9.236;2023-11-22T04:02:31;2.20;99.90
5930;DHT22;2990;48.746;9.236;2023-11-22T04:04:57;2.20;99.90
5930;DHT22;2990;48.746;9.236;2023-11-22T04:07:22;2.20;99.90
5930;DHT22;2990;48.746;9.236;2023-11-22T04:09:48;2.20;99.90
5930;DHT22;2990;48.746;9.236;2023-11-22T04:12:14;2.20;99.90
5930;DHT22;2990;48.746;9.236;2023-11-22T04:14:39;2.20;99.90
5930;DHT22;2990;48.746;9.236;2023-11-22T04:17:05;2.20;99.90
5930;DHT22;2990;48.746;9.236;2023-11-22T04:19:31;2.10;99.90
5930;DHT22;2990;48.746;9.236;2023-11-22T04:21:56;2.10;99.90
5930;DHT22;2990;48.746;9.236;2023-11-22T04:24:22;2.10;99.90
5930;DHT22;2990;48.746;9.236;2023-11-22T04:26:48;2.10;99.90
5930;DHT22;2990;48.746;9.236;2023-11-22T04:29:13;2.10;99.90
5930;DHT22;2990;48.746;9.236;2023-11-22T04:31:39;2.10;99.90
5930;DHT22;2990;48.746;9.236;2023-11-22T04:34:04;2.20;99.90
5930;DHT22;2990;48.746;9.236;2023-11-22T04:36:30;2.20;99.90
5930;DHT22;2990;48.746;9.236;2023-11-22T04:38:56;2.20;99.90
5930;DHT22;2990;48.746;9.236;2023-11-22T04:41:21;2.20;99.90
5930;DHT22;2990;48.746;9.236;2023-11-22T04:43:48;2.20;99.90
5930;DHT22;2990;48.746;9.236;2023-11-22T04:46:13;2.10;99.90
5930;DHT22;2990;48.746;9.236;2023-11-22T04:48:39;2.20;98.40
5930;DHT22;2990;48.746;9.236;2023-11-22T04:51:06;2.20;95.20
5930;DHT22;2990;48.746;9.236;2023-11-22T04:53:31;2.20;67.10
5930;DHT22;2990;48.746;9.236;2023-11-22T04:55:57;2.20;46.80
5930;DHT22;2990;48.746;9.236;2023-11-22T04:58:24;2.10;16.20
5930;DHT22;2990;48.746;9.236;2023-11-22T05:00:50;2.10;6.50
5930;DHT22;2990;48.746;9.236;2023-11-22T05:03:15;2.10;1.00
5930;DHT22;2990;48.746;9.236;2023-11-22T05:05:41;2.10;2.70
5930;DHT22;2990;48.746;9.236;2023-11-22T05:08:06;2.20;1.00
5930;DHT22;2990;48.746;9.236;2023-11-22T05:10:32;2.10;1.00
5930;DHT22;2990;48.746;9.236;2023-11-22T05:12:57;2.10;1.00
5930;DHT22;2990;48.746;9.236;2023-11-22T05:15:26;2.20;1.00
5930;DHT22;2990;48.746;9.236;2023-11-22T05:17:51;2.20;1.00
5930;DHT22;2990;48.746;9.236;2023-11-22T05:20:17;2.20;1.00
5930;DHT22;2990;48.746;9.236;2023-11-22T05:22:42;2.10;1.00
5930;DHT22;2990;48.746;9.236;2023-11-22T05:25:08;2.10;1.00
5930;DHT22;2990;48.746;9.236;2023-11-22T05:27:34;2.10;1.00
5930;DHT22;2990;48.746;9.236;2023-11-22T05:29:59;2.10;1.00
5930;DHT22;2990;48.746;9.236;2023-11-22T05:32:27;2.00;1.00
5930;DHT22;2990;48.746;9.236;2023-11-22T05:34:52;2.10;1.00
5930;DHT22;2990;48.746;9.236;2023-11-22T05:37:18;2.10;1.00
5930;DHT22;2990;48.746;9.236;2023-11-22T05:39:44;2.10;1.00
5930;DHT22;2990;48.746;9.236;2023-11-22T05:42:10;2.10;1.00
5930;DHT22;2990;48.746;9.236;2023-11-22T05:44:36;2.00;1.00
5930;DHT22;2990;48.746;9.236;2023-11-22T05:47:01;2.00;1.00
5930;DHT22;2990;48.746;9.236;2023-11-22T05:49:27;2.10;1.00
5930;DHT22;2990;48.746;9.236;2023-11-22T05:51:53;2.00;1.00
5930;DHT22;2990;48.746;9.236;2023-11-22T05:54:19;2.10;1.00
5930;DHT22;2990;48.746;9.236;2023-11-22T05:56:44;2.00;1.00
5930;DHT22;2990;48.746;9.236;2023-11-22T05:59:10;2.00;1.00
5930;DHT22;2990;48.746;9.236;2023-11-22T06:01:36;2.10;1.00
5930;DHT22;2990;48.746;9.236;2023-11-22T06:04:01;2.10;1.00
5930;DHT22;2990;48.746;9.236;2023-11-22T06:06:28;2.10;1.00
5930;DHT22;2990;48.746;9.236;2023-11-22T06:08:53;2.10;1.00
5930;DHT22;2990;48.746;9.236;2023-11-22T06:11:19;2.10;1.00
5930;DHT22;2990;48.746;9.236;2023-11-22T06:13:46;2.00;1.00
5930;DHT22;2990;48.746;9.236;2023-11-22T06:16:12;2.10;1.00
5930;DHT22;2990;48.746;9.236;2023-11-22T06:18:38;2.10;1.00
5930;DHT22;2990;48.746;9.236;2023-11-22T06:21:09;2.10;1.00
5930;DHT22;2990;48.746;9.236;2023-11-22T06:23:35;2.10;1.00
5930;DHT22;2990;48.746;9.236;2023-11-22T06:26:00;2.10;1.00
5930;DHT22;2990;48.746;9.236;2023-11-22T06:28:26;2.10;1.00
5930;DHT22;2990;48.746;9.236;2023-11-22T06:30:52;2.10;20.10
5930;DHT22;2990;48.746;9.236;2023-11-22T06:33:18;2.10;50.80
5930;DHT22;2990;48.746;9.236;2023-11-22T06:35:44;2.10;81.20
5930;DHT22;2990;48.746;9.236;2023-11-22T06:38:09;2.20;99.90
5930;DHT22;2990;48.746;9.236;2023-11-22T06:40:35;2.20;99.90
5930;DHT22;2990;48.746;9.236;2023-11-22T06:43:01;2.20;99.90
5930;DHT22;2990;48.746;9.236;2023-11-22T06:45:26;2.20;99.90
5930;DHT22;2990;48.746;9.236;2023-11-22T06:47:52;2.20;96.10
5930;DHT22;2990;48.746;9.236;2023-11-22T06:50:18;2.20;95.50
5930;DHT22;2990;48.746;9.236;2023-11-22T06:52:43;2.20;99.90
5930;DHT22;2990;48.746;9.236;2023-11-22T06:55:10;2.20;99.90
5930;DHT22;2990;48.746;9.236;2023-11-22T06:57:35;2.10;99.90
5930;DHT22;2990;48.746;9.236;2023-11-22T07:00:02;2.20;95.90
5930;DHT22;2990;48.746;9.236;2023-11-22T07:02:33;2.10;95.40
5930;DHT22;2990;48.746;9.236;2023-11-22T07:05:00;2.10;97.40
5930;DHT22;2990;48.746;9.236;2023-11-22T07:07:26;2.10;91.30
5930;DHT22;2990;48.746;9.236;2023-11-22T07:09:52;2.10;81.80
5930;DHT22;2990;48.746;9.236;2023-11-22T07:12:17;2.10;62.60
5930;DHT22;2990;48.746;9.236;2023-11-22T07:14:44;2.10;54.40
5930;DHT22;2990;48.746;9.236;2023-11-22T07:17:10;2.10;58.20
5930;DHT22;2990;48.746;9.236;2023-11-22T07:19:36;2.10;60.20
5930;DHT22;2990;48.746;9.236;2023-11-22T07:22:04;2.00;56.90
5930;DHT22;2990;48.746;9.236;2023-11-22T07:24:35;2.00;53.90
5930;DHT22;2990;48.746;9.236;2023-11-22T07:27:02;2.00;47.10
5930;DHT22;2990;48.746;9.236;2023-11-22T07:29:28;2.00;45.60
5930;DHT22;2990;48.746;9.236;2023-11-22T07:31:54;2.00;21.60
5930;DHT22;2990;48.746;9.236;2023-11-22T07:34:21;1.90;15.90
5930;DHT22;2990;48.746;9.236;2023-11-22T07:36:47;1.90;13.20
5930;DHT22;2990;48.746;9.236;2023-11-22T07:39:13;2.00;26.90
5930;DHT22;2990;48.746;9.236;2023-11-22T07:41:38;2.00;30.80
5930;DHT22;2990;48.746;9.236;2023-11-22T07:44:04;1.90;13.80
5930;DHT22;2990;48.746;9.236;2023-11-22T07:46:30;2.00;15.00
5930;DHT22;2990;48.746;9.236;2023-11-22T07:48:56;2.00;14.70
5930;DHT22;2990;48.746;9.236;2023-11-22T07:51:21;2.00;5.20
5930;DHT22;2990;48.746;9.236;2023-11-22T07:53:49;1.90;1.00
5930;DHT22;2990;48.746;9.236;2023-11-22T07:56:14;1.90;1.00
5930;DHT22;2990;48.746;9.236;2023-11-22T07:58:40;1.80;1.00
5930;DHT22;2990;48.746;9.236;2023-11-22T08:01:06;1.80;1.00
5930;DHT22;2990;48.746;9.236;2023-11-22T08:03:39;1.80;1.00
5930;DHT22;2990;48.746;9.236;2023-11-22T08:06:06;1.80;1.00
5930;DHT22;2990;48.746;9.236;2023-11-22T08:08:31;1.80;1.00
5930;DHT22;2990;48.746;9.236;2023-11-22T08:11:00;1.70;1.00
5930;DHT22;2990;48.746;9.236;2023-11-22T08:13:27;1.70;1.00
5930;DHT22;2990;48.746;9.236;2023-11-22T08:15:53;1.70;1.00
5930;DHT22;2990;48.746;9.236;2023-11-22T08:18:19;1.70;1.00
5930;DHT22;2990;48.746;9.236;2023-11-22T08:20:44;1.70;1.00
5930;DHT22;2990;48.746;9.236;2023-11-22T08:23:10;1.70;1.00
5930;DHT22;2990;48.746;9.236;2023-11-22T08:25:37;1.70;1.00
5930;DHT22;2990;48.746;9.236;2023-11-22T08:28:04;1.70;1.00
5930;DHT22;2990;48.746;9.236;2023-11-22T08:30:29;1.70;1.00
5930;DHT22;2990;48.746;9.236;2023-11-22T08:32:58;1.60;1.00
5930;DHT22;2990;48.746;9.236;2023-11-22T08:35:23;1.60;1.00
5930;DHT22;2990;48.746;9.236;2023-11-22T08:37:49;1.60;1.00
5930;DHT22;2990;48.746;9.236;2023-11-22T08:40:16;1.60;1.00
5930;DHT22;2990;48.746;9.236;2023-11-22T08:42:46;1.60;1.00
5930;DHT22;2990;48.746;9.236;2023-11-22T08:45:11;1.60;1.00
5930;DHT22;2990;48.746;9.236;2023-11-22T08:47:38;1.50;1.00
5930;DHT22;2990;48.746;9.236;2023-11-22T08:50:06;1.50;1.00
5930;DHT22;2990;48.746;9.236;2023-11-22T08:52:31;1.60;1.00
5930;DHT22;2990;48.746;9.236;2023-11-22T08:54:57;1.50;1.00
5930;DHT22;2990;48.746;9.236;2023-11-22T08:57:22;1.50;1.00
5930;DHT22;2990;48.746;9.236;2023-11-22T08:59:48;1.50;1.00
5930;DHT22;2990;48.746;9.236;2023-11-22T09:02:14;1.50;1.00
5930;DHT22;2990;48.746;9.236;2023-11-22T09:04:40;1.50;1.00
5930;DHT22;2990;48.746;9.236;2023-11-22T09:07:07;1.60;1.00
5930;DHT22;2990;48.746;9.236;2023-11-22T09:09:33;1.60;1.00
5930;DHT22;2990;48.746;9.236;2023-11-22T09:12:00;1.60;1.00
5930;DHT22;2990;48.746;9.236;2023-11-22T09:14:26;1.60;1.00
5930;DHT22;2990;48.746;9.236;2023-11-22T09:16:52;1.70;1.00
5930;DHT22;2990;48.746;9.236;2023-11-22T09:19:24;1.70;1.00
5930;DHT22;2990;48.746;9.236;2023-11-22T09:21:50;1.70;1.00
5930;DHT22;2990;48.746;9.236;2023-11-22T09:24:16;1.80;1.00
5930;DHT22;2990;48.746;9.236;2023-11-22T09:26:41;1.80;1.00
5930;DHT22;2990;48.746;9.236;2023-11-22T09:29:08;1.70;1.00
5930;DHT22;2990;48.746;9.236;2023-11-22T09:31:35;1.80;1.00
5930;DHT22;2990;48.746;9.236;2023-11-22T09:34:00;1.70;1.00
5930;DHT22;2990;48.746;9.236;2023-11-22T09:36:26;1.70;1.00
5930;DHT22;2990;48.746;9.236;2023-11-22T09:38:53;1.70;1.00
5930;DHT22;2990;48.746;9.236;2023-11-22T09:41:19;1.70;1.00
5930;DHT22;2990;48.746;9.236;2023-11-22T09:43:45;1.70;1.00
5930;DHT22;2990;48.746;9.236;2023-11-22T09:46:14;1.70;1.00
5930;DHT22;2990;48.746;9.236;2023-11-22T09:48:42;1.70;1.00
5930;DHT22;2990;48.746;9.236;2023-11-22T09:53:40;1.80;1.00
5930;DHT22;2990;48.746;9.236;2023-11-22T09:56:07;1.80;1.00
5930;DHT22;2990;48.746;9.236;2023-11-22T09:58:35;1.80;1.00
5930;DHT22;2990;48.746;9.236;2023-11-22T10:01:03;1.80;1.00
5930;DHT22;2990;48.746;9.236;2023-11-22T10:03:33;1.90;1.00
5930;DHT22;2990;48.746;9.236;2023-11-22T10:05:59;1.90;1.00
5930;DHT22;2990;48.746;9.236;2023-11-22T10:08:25;1.90;1.00
5930;DHT22;2990;48.746;9.236;2023-11-22T10:10:53;2.00;1.00
5930;DHT22;2990;48.746;9.236;2023-11-22T10:13:20;1.90;1.00
5930;DHT22;2990;48.746;9.236;2023-11-22T10:15:47;1.90;1.00
5930;DHT22;2990;48.746;9.236;2023-11-22T10:18:13;1.90;1.00
5930;DHT22;2990;48.746;9.236;2023-11-22T10:20:42;1.90;1.00
5930;DHT22;2990;48.746;9.236;2023-11-22T10:23:15;2.00;1.00
5930;DHT22;2990;48.746;9.236;2023-11-22T10:25:44;2.00;1.00
5930;DHT22;2990;48.746;9.236;2023-11-22T10:28:12;2.00;1.00
5930;DHT22;2990;48.746;9.236;2023-11-22T10:30:38;1.90;1.00
5930;DHT22;2990;48.746;9.236;2023-11-22T10:33:06;1.90;1.00
5930;DHT22;2990;48.746;9.236;2023-11-22T10:35:31;1.90;1.00
5930;DHT22;2990;48.746;9.236;2023-11-22T10:37:59;1.90;1.00
5930;DHT22;2990;48.746;9.236;2023-11-22T10:40:29;1.90;1.00
5930;DHT22;2990;48.746;9.236;2023-11-22T10:42:56;1.90;1.00
5930;DHT22;2990;48.746;9.236;2023-11-22T10:45:21;1.90;1.00
5930;DHT22;2990;48.746;9.236;2023-11-22T10:47:50;2.00;1.00
5930;DHT22;2990;48.746;9.236;2023-11-22T10:50:17;2.00;1.00
5930;DHT22;2990;48.746;9.236;2023-11-22T10:52:44;2.10;1.00
5930;DHT22;2990;48.746;9.236;2023-11-22T10:55:12;2.10;1.00
5930;DHT22;2990;48.746;9.236;2023-11-22T10:57:44;2.10;1.00
5930;DHT22;2990;48.746;9.236;2023-11-22T11:00:12;2.10;1.00
5930;DHT22;2990;48.746;9.236;2023-11-22T11:02:45;2.10;1.00
5930;DHT22;2990;48.746;9.236;2023-11-22T11:05:27;2.10;1.00
5930;DHT22;2990;48.746;9.236;2023-11-22T11:08:05;2.20;1.00
5930;DHT22;2990;48.746;9.236;2023-11-22T11:10:47;2.20;1.00
5930;DHT22;2990;48.746;9.236;2023-11-22T11:13:15;2.20;1.00
5930;DHT22;2990;48.746;9.236;2023-11-22T11:15:41;2.30;1.00
5930;DHT22;2990;48.746;9.236;2023-11-22T11:18:10;2.30;1.00
5930;DHT22;2990;48.746;9.236;2023-11-22T11:23:15;2.30;1.00
5930;DHT22;2990;48.746;9.236;2023-11-22T11:25:41;2.30;1.00
5930;DHT22;2990;48.746;9.236;2023-11-22T11:28:11;2.30;99.90
5930;DHT22;2990;48.746;9.236;2023-11-22T11:33:09;2.20;1.00
5930;DHT22;2990;48.746;9.236;2023-11-22T11:35:56;2.30;1.00
5930;DHT22;2990;48.746;9.236;2023-11-22T11:38:30;2.30;1.00
5930;DHT22;2990;48.746;9.236;2023-11-22T11:41:06;2.30;1.00
5930;DHT22;2990;48.746;9.236;2023-11-22T11:43:44;2.30;1.00
5930;DHT22;2990;48.746;9.236;2023-11-22T11:46:11;2.30;1.00
5930;DHT22;2990;48.746;9.236;2023-11-22T11:48:37;2.40;1.00
5930;DHT22;2990;48.746;9.236;2023-11-22T11:51:03;2.40;1.00
5930;DHT22;2990;48.746;9.236;2023-11-22T11:53:28;2.40;1.00
5930;DHT22;2990;48.746;9.236;2023-11-22T11:55:57;2.40;1.00
5930;DHT22;2990;48.746;9.236;2023-11-22T11:58:23;2.40;1.00
5930;DHT22;2990;48.746;9.236;2023-11-22T12:00:51;2.30;1.00
5930;DHT22;2990;48.746;9.236;2023-11-22T12:03:18;2.30;1.00
5930;DHT22;2990;48.746;9.236;2023-11-22T12:05:46;2.30;1.00
5930;DHT22;2990;48.746;9.236;2023-11-22T12:08:13;2.30;1.00
5930;DHT22;2990;48.746;9.236;2023-11-22T12:10:41;2.30;1.00
5930;DHT22;2990;48.746;9.236;2023-11-22T12:13:07;2.30;1.00
5930;DHT22;2990;48.746;9.236;2023-11-22T12:15:33;2.30;1.00
5930;DHT22;2990;48.746;9.236;2023-11-22T12:17:59;2.30;1.00
5930;DHT22;2990;48.746;9.236;2023-11-22T12:20:26;2.30;1.00
5930;DHT22;2990;48.746;9.236;2023-11-22T12:23:00;2.30;1.00
5930;DHT22;2990;48.746;9.236;2023-11-22T12:25:30;2.30;1.00
5930;DHT22;2990;48.746;9.236;2023-11-22T12:27:56;2.30;1.00
5930;DHT22;2990;48.746;9.236;2023-11-22T12:30:32;2.20;1.00
5930;DHT22;2990;48.746;9.236;2023-11-22T12:33:09;2.20;1.00
5930;DHT22;2990;48.746;9.236;2023-11-22T12:35:35;2.10;99.90
5930;DHT22;2990;48.746;9.236;2023-11-22T12:38:02;2.10;99.90
5930;DHT22;2990;48.746;9.236;2023-11-22T12:40:31;2.10;99.90
5930;DHT22;2990;48.746;9.236;2023-11-22T12:42:57;2.10;99.90
5930;DHT22;2990;48.746;9.236;2023-11-22T12:45:24;2.00;99.90
5930;DHT22;2990;48.746;9.236;2023-11-22T12:47:50;2.00;99.90
5930;DHT22;2990;48.746;9.236;2023-11-22T12:52:55;2.00;99.90
5930;DHT22;2990;48.746;9.236;2023-11-22T12:55:21;2.00;99.90
5930;DHT22;2990;48.746;9.236;2023-11-22T12:57:56;2.00;1.00
5930;DHT22;2990;48.746;9.236;2023-11-22T13:00:22;2.00;99.90
5930;DHT22;2990;48.746;9.236;2023-11-22T13:02:48;2.00;99.90
5930;DHT22;2990;48.746;9.236;2023-11-22T13:05:14;1.90;1.00
5930;DHT22;2990;48.746;9.236;2023-11-22T13:07:41;1.90;82.00
5930;DHT22;2990;48.746;9.236;2023-11-22T13:10:08;1.90;99.90
5930;DHT22;2990;48.746;9.236;2023-11-22T13:12:35;2.00;99.90
5930;DHT22;2990;48.746;9.236;2023-11-22T13:15:00;2.00;1.00
5930;DHT22;2990;48.746;9.236;2023-11-22T13:17:26;2.00;99.90
5930;DHT22;2990;48.746;9.236;2023-11-22T13:19:51;2.00;99.90
5930;DHT22;2990;48.746;9.236;2023-11-22T13:22:17;2.00;99.90
5930;DHT22;2990;48.746;9.236;2023-11-22T13:24:44;2.00;99.90
5930;DHT22;2990;48.746;9.236;2023-11-22T13:27:10;2.00;1.00
5930;DHT22;2990;48.746;9.236;2023-11-22T13:29:35;2.00;1.00
5930;DHT22;2990;48.746;9.236;2023-11-22T13:32:01;2.00;1.00
5930;DHT22;2990;48.746;9.236;2023-11-22T13:34:27;2.00;99.90
5930;DHT22;2990;48.746;9.236;2023-11-22T13:36:52;2.00;99.90
5930;DHT22;2990;48.746;9.236;2023-11-22T13:39:18;2.00;1.00
5930;DHT22;2990;48.746;9.236;2023-11-22T13:41:43;2.00;1.00
5930;DHT22;2990;48.746;9.236;2023-11-22T13:44:09;1.90;1.00
5930;DHT22;2990;48.746;9.236;2023-11-22T13:46:35;1.90;99.90
5930;DHT22;2990;48.746;9.236;2023-11-22T13:49:01;2.00;99.90
5930;DHT22;2990;48.746;9.236;2023-11-22T13:51:26;2.00;99.90
5930;DHT22;2990;48.746;9.236;2023-11-22T13:53:53;1.90;1.00
5930;DHT22;2990;48.746;9.236;2023-11-22T13:56:19;1.90;1.00
5930;DHT22;2990;48.746;9.236;2023-11-22T13:58:44;1.90;99.90
5930;DHT22;2990;48.746;9.236;2023-11-22T14:01:10;2.00;99.90
5930;DHT22;2990;48.746;9.236;2023-11-22T14:03:41;2.00;99.90
5930;DHT22;2990;48.746;9.236;2023-11-22T14:06:08;2.00;99.90
5930;DHT22;2990;48.746;9.236;2023-11-22T14:08:35;2.00;99.90
5930;DHT22;2990;48.746;9.236;2023-11-22T14:11:00;2.00;99.90
5930;DHT22;2990;48.746;9.236;2023-11-22T14:13:26;2.00;99.90
5930;DHT22;2990;48.746;9.236;2023-11-22T14:15:51;2.10;99.90
5930;DHT22;2990;48.746;9.236;2023-11-22T14:18:17;2.10;99.90
5930;DHT22;2990;48.746;9.236;2023-11-22T14:20:42;2.10;95.50
5930;DHT22;2990;48.746;9.236;2023-11-22T14:23:09;2.10;99.90
5930;DHT22;2990;48.746;9.236;2023-11-22T14:25:34;2.00;1.00
5930;DHT22;2990;48.746;9.236;2023-11-22T14:28:00;1.90;1.00
5930;DHT22;2990;48.746;9.236;2023-11-22T14:30:26;1.90;1.00
5930;DHT22;2990;48.746;9.236;2023-11-22T14:32:54;1.90;1.00
5930;DHT22;2990;48.746;9.236;2023-11-22T14:35:20;1.90;1.00
5930;DHT22;2990;48.746;9.236;2023-11-22T14:37:45;1.90;39.40
5930;DHT22;2990;48.746;9.236;2023-11-22T14:40:11;1.90;1.00
5930;DHT22;2990;48.746;9.236;2023-11-22T14:42:44;1.90;1.00
5930;DHT22;2990;48.746;9.236;2023-11-22T14:45:17;1.80;99.90
5930;DHT22;2990;48.746;9.236;2023-11-22T14:47:45;1.80;1.00
5930;DHT22;2990;48.746;9.236;2023-11-22T14:50:11;1.80;1.00
5930;DHT22;2990;48.746;9.236;2023-11-22T14:52:37;1.80;99.90
5930;DHT22;2990;48.746;9.236;2023-11-22T14:55:02;1.80;99.90
5930;DHT22;2990;48.746;9.236;2023-11-22T14:57:30;1.80;1.00
5930;DHT22;2990;48.746;9.236;2023-11-22T14:59:55;1.80;42.80
5930;DHT22;2990;48.746;9.236;2023-11-22T15:02:22;1.80;1.00
5930;DHT22;2990;48.746;9.236;2023-11-22T15:04:48;1.90;1.00
5930;DHT22;2990;48.746;9.236;2023-11-22T15:07:13;1.80;1.00
5930;DHT22;2990;48.746;9.236;2023-11-22T15:09:40;1.80;67.30
5930;DHT22;2990;48.746;9.236;2023-11-22T15:12:06;1.80;52.70
5930;DHT22;2990;48.746;9.236;2023-11-22T15:14:32;1.80;1.00
5930;DHT22;2990;48.746;9.236;2023-11-22T15:16:58;1.80;1.00
5930;DHT22;2990;48.746;9.236;2023-11-22T15:19:26;1.80;1.00
5930;DHT22;2990;48.746;9.236;2023-11-22T15:21:53;1.80;1.00
5930;DHT22;2990;48.746;9.236;2023-11-22T15:24:19;1.80;1.00
5930;DHT22;2990;48.746;9.236;2023-11-22T15:26:45;1.80;1.00
5930;DHT22;2990;48.746;9.236;2023-11-22T15:29:10;1.80;1.00
5930;DHT22;2990;48.746;9.236;2023-11-22T15:31:36;1.80;1.00
5930;DHT22;2990;48.746;9.236;2023-11-22T15:34:01;1.80;1.00
5930;DHT22;2990;48.746;9.236;2023-11-22T15:36:27;1.80;1.00
5930;DHT22;2990;48.746;9.236;2023-11-22T15:38:53;1.80;1.00
5930;DHT22;2990;48.746;9.236;2023-11-22T15:41:19;1.80;1.00
5930;DHT22;2990;48.746;9.236;2023-11-22T15:43:45;1.80;1.00
5930;DHT22;2990;48.746;9.236;2023-11-22T15:46:12;1.80;16.30
5930;DHT22;2990;48.746;9.236;2023-11-22T15:48:38;1.80;99.90
5930;DHT22;2990;48.746;9.236;2023-11-22T15:51:04;1.80;99.90
5930;DHT22;2990;48.746;9.236;2023-11-22T15:53:32;1.80;99.90
5930;DHT22;2990;48.746;9.236;2023-11-22T15:55:57;1.70;99.90
5930;DHT22;2990;48.746;9.236;2023-11-22T15:58:23;1.70;99.90
5930;DHT22;2990;48.746;9.236;2023-11-22T16:00:49;1.70;99.90
5930;DHT22;2990;48.746;9.236;2023-11-22T16:03:16;1.70;99.90
5930;DHT22;2990;48.746;9.236;2023-11-22T16:05:44;1.70;99.90
5930;DHT22;2990;48.746;9.236;2023-11-22T16:08:11;1.70;99.90
5930;DHT22;2990;48.746;9.236;2023-11-22T16:10:37;1.70;99.90
5930;DHT22;2990;48.746;9.236;2023-11-22T16:13:03;1.70;1.00
5930;DHT22;2990;48.746;9.236;2023-11-22T16:15:28;1.70;99.90
5930;DHT22;2990;48.746;9.236;2023-11-22T16:17:54;1.70;99.90
5930;DHT22;2990;48.746;9.236;2023-11-22T16:20:21;1.70;99.90
5930;DHT22;2990;48.746;9.236;2023-11-22T16:22:49;1.70;26.30
5930;DHT22;2990;48.746;9.236;2023-11-22T16:25:15;1.60;1.00
5930;DHT22;2990;48.746;9.236;2023-11-22T16:27:48;1.70;99.90
5930;DHT22;2990;48.746;9.236;2023-11-22T16:30:13;1.70;7.00
5930;DHT22;2990;48.746;9.236;2023-11-22T16:32:39;1.60;99.90